createdAt,value
2023-02-07T00:01:25.077Z,102801.00
2023-02-07T00:03:54.400Z,102792.19
2023-02-07T00:06:24.905Z,102795.59
2023-02-07T00:08:53.134Z,102799.13
2023-02-07T00:11:21.613Z,102811.88
2023-02-07T00:13:52.468Z,102812.75
2023-02-07T00:16:20.743Z,102813.41
2023-02-07T00:18:48.150Z,102827.91
2023-02-07T00:21:18.140Z,102829.03
2023-02-07T00:23:46.483Z,102831.19
2023-02-07T00:26:15.264Z,102830.44
2023-02-07T00:28:43.296Z,102828.09
2023-02-07T00:31:16.236Z,102824.91
2023-02-07T00:33:44.877Z,102831.84
2023-02-07T00:36:15.201Z,102824.41
2023-02-07T00:38:43.214Z,102829.72
2023-02-07T00:41:15.141Z,102819.25
2023-02-07T00:43:43.089Z,102831.19
2023-02-07T00:46:10.604Z,102834.63
2023-02-07T00:48:40.152Z,102835.12
2023-02-07T00:51:09.546Z,102828.00
2023-02-07T00:53:36.702Z,102828.97
2023-02-07T00:56:03.905Z,102840.53
2023-02-07T00:58:31.428Z,102847.22
2023-02-07T01:00:58.637Z,102836.66
2023-02-07T01:03:25.837Z,102828.47
2023-02-07T01:05:53.266Z,102827.91
2023-02-07T01:08:20.506Z,102832.78
2023-02-07T01:10:47.740Z,102821.91
2023-02-07T01:13:16.185Z,102826.06
2023-02-07T01:15:45.635Z,102821.12
2023-02-07T01:18:13.338Z,102825.75
2023-02-07T01:20:41.027Z,102828.66
2023-02-07T01:23:12.418Z,102829.94
2023-02-07T01:25:40.239Z,102831.47
2023-02-07T01:28:07.971Z,102820.72
2023-02-07T01:30:35.366Z,102817.63
2023-02-07T01:33:02.672Z,102804.97
2023-02-07T01:35:30.400Z,102809.87
2023-02-07T01:38:02.645Z,102809.00
2023-02-07T01:40:31.446Z,102804.78
2023-02-07T01:42:59.292Z,102802.50
2023-02-07T01:45:36.404Z,102801.03
2023-02-07T01:48:09.083Z,102800.09
2023-02-07T01:50:36.531Z,102799.75
2023-02-07T01:53:05.109Z,102796.00
2023-02-07T01:55:35.606Z,102788.25
2023-02-07T01:58:04.835Z,102780.88
2023-02-07T02:00:32.271Z,102778.09
2023-02-07T02:02:59.743Z,102777.03
2023-02-07T02:05:29.035Z,102780.91
2023-02-07T02:07:56.552Z,102777.34
2023-02-07T02:10:28.576Z,102783.69
2023-02-07T02:13:20.730Z,102776.13
2023-02-07T02:15:54.839Z,102770.84
2023-02-07T02:18:46.711Z,102770.91
2023-02-07T02:21:26.454Z,102768.31
2023-02-07T02:24:11.612Z,102768.53
2023-02-07T02:26:46.746Z,102769.34
2023-02-07T02:29:50.299Z,102775.28
2023-02-07T02:32:35.997Z,102776.16
2023-02-07T02:35:12.351Z,102767.97
2023-02-07T02:38:05.979Z,102772.34
2023-02-07T02:40:53.440Z,102766.00
2023-02-07T02:43:28.972Z,102766.00
2023-02-07T02:46:05.520Z,102760.28
2023-02-07T02:48:34.228Z,102763.34
2023-02-07T02:51:02.129Z,102753.78
2023-02-07T02:53:29.532Z,102769.94
2023-02-07T02:56:08.944Z,102773.19
2023-02-07T02:59:06.067Z,102773.19
2023-02-07T03:01:49.193Z,102776.78
2023-02-07T03:04:36.837Z,102761.69
2023-02-07T03:07:31.248Z,102759.25
2023-02-07T03:10:19.825Z,102753.50
2023-02-07T03:13:18.341Z,102756.78
2023-02-07T03:16:00.979Z,102750.97
2023-02-07T03:18:48.367Z,102747.34
2023-02-07T03:21:25.078Z,102764.41
2023-02-07T03:23:53.847Z,102762.88
2023-02-07T03:26:21.861Z,102767.38
2023-02-07T03:28:53.742Z,102770.38
2023-02-07T03:31:23.309Z,102769.88
2023-02-07T03:33:54.900Z,102767.06
2023-02-07T03:36:27.703Z,102776.13
2023-02-07T03:38:54.840Z,102768.06
2023-02-07T03:41:28.610Z,102762.97
2023-02-07T03:43:58.172Z,102768.94
2023-02-07T03:46:26.447Z,102768.75
2023-02-07T03:48:53.626Z,102763.97
2023-02-07T03:51:21.264Z,102757.91
2023-02-07T03:53:48.453Z,102763.00
2023-02-07T03:56:15.630Z,102767.19
2023-02-07T03:58:43.098Z,102766.59
2023-02-07T04:01:10.471Z,102770.81
2023-02-07T04:03:37.988Z,102763.53
2023-02-07T04:06:05.550Z,102765.53
2023-02-07T04:08:32.839Z,102751.84
2023-02-07T04:11:02.308Z,102746.03
2023-02-07T04:13:30.096Z,102752.47
2023-02-07T04:15:57.412Z,102750.84
2023-02-07T04:18:24.981Z,102751.34
2023-02-07T04:20:52.358Z,102744.34
2023-02-07T04:23:19.531Z,102750.75
2023-02-07T04:25:47.003Z,102757.84
2023-02-07T04:28:14.848Z,102748.84
2023-02-07T04:30:42.085Z,102756.44
2023-02-07T04:33:09.580Z,102760.53
2023-02-07T04:35:37.021Z,102761.50
2023-02-07T04:38:04.375Z,102753.09
2023-02-07T04:40:31.908Z,102741.81
2023-02-07T04:42:59.054Z,102751.25
2023-02-07T04:45:26.219Z,102745.03
2023-02-07T04:47:53.763Z,102748.09
2023-02-07T04:50:20.949Z,102748.09
2023-02-07T04:52:48.091Z,102755.66
2023-02-07T04:55:15.584Z,102764.66
2023-02-07T04:57:42.765Z,102764.91
2023-02-07T05:00:10.730Z,102768.56
2023-02-07T05:02:38.185Z,102768.38
2023-02-07T05:05:05.634Z,102774.84
2023-02-07T05:07:32.745Z,102775.31
2023-02-07T05:10:00.282Z,102778.69
2023-02-07T05:12:27.463Z,102787.28
2023-02-07T05:14:54.649Z,102790.00
2023-02-07T05:17:22.499Z,102790.56
2023-02-07T05:19:49.666Z,102799.91
2023-02-07T05:22:16.810Z,102797.31
2023-02-07T05:24:44.362Z,102805.13
2023-02-07T05:27:11.533Z,102816.97
2023-02-07T05:29:38.660Z,102814.84
2023-02-07T05:32:24.367Z,102816.28
2023-02-07T05:34:51.656Z,102815.75
2023-02-07T05:37:19.039Z,102820.38
2023-02-07T05:39:46.196Z,102817.97
2023-02-07T05:42:13.363Z,102810.13
2023-02-07T05:44:40.826Z,102812.03
2023-02-07T05:47:08.424Z,102810.81
2023-02-07T05:49:35.630Z,102809.41
2023-02-07T05:52:03.255Z,102814.00
2023-02-07T05:54:30.430Z,102819.81
2023-02-07T05:56:57.620Z,102818.97
2023-02-07T05:59:25.235Z,102819.41
2023-02-07T06:01:52.473Z,102820.16
2023-02-07T06:04:21.541Z,102830.56
2023-02-07T06:06:52.468Z,102823.41
2023-02-07T06:09:20.129Z,102823.91
2023-02-07T06:11:47.292Z,102817.94
2023-02-07T06:14:14.476Z,102818.09
2023-02-07T06:16:41.933Z,102822.66
2023-02-07T06:19:11.356Z,102828.31
2023-02-07T06:21:46.475Z,102828.03
2023-02-07T06:24:15.746Z,102832.72
2023-02-07T06:26:43.759Z,102829.56
2023-02-07T06:29:10.911Z,102830.91
2023-02-07T06:31:38.453Z,102827.44
2023-02-07T06:34:06.162Z,102831.13
2023-02-07T06:36:33.382Z,102829.63
2023-02-07T06:39:00.875Z,102828.91
2023-02-07T06:41:28.120Z,102831.28
2023-02-07T06:43:55.327Z,102830.50
2023-02-07T06:46:22.837Z,102825.00
2023-02-07T06:48:50.134Z,102825.00
2023-02-07T06:51:17.333Z,102823.22
2023-02-07T06:53:44.839Z,102821.81
2023-02-07T06:56:12.202Z,102810.31
2023-02-07T06:58:39.483Z,102808.41
2023-02-07T07:01:06.940Z,102809.34
2023-02-07T07:03:34.258Z,102807.59
2023-02-07T07:06:01.334Z,102812.31
2023-02-07T07:08:28.856Z,102811.94
2023-02-07T07:10:56.973Z,102809.81
2023-02-07T07:13:24.927Z,102812.91
2023-02-07T07:15:52.463Z,102805.50
2023-02-07T07:18:19.621Z,102807.28
2023-02-07T07:20:47.002Z,102804.62
2023-02-07T07:23:14.506Z,102806.19
2023-02-07T07:25:41.682Z,102807.22
2023-02-07T07:28:08.906Z,102805.00
2023-02-07T07:30:36.449Z,102798.31
2023-02-07T07:33:03.758Z,102794.56
2023-02-07T07:35:31.193Z,102798.81
2023-02-07T07:37:58.690Z,102795.09
2023-02-07T07:40:25.920Z,102796.75
2023-02-07T07:42:53.109Z,102796.75
2023-02-07T07:45:20.961Z,102795.13
2023-02-07T07:47:48.202Z,102797.03
2023-02-07T07:50:15.547Z,102799.41
2023-02-07T07:52:43.556Z,102802.78
2023-02-07T07:55:10.961Z,102801.00
2023-02-07T07:57:38.324Z,102798.19
2023-02-07T08:00:06.431Z,102798.63
2023-02-07T08:02:40.986Z,102799.22
2023-02-07T08:05:08.904Z,102798.03
2023-02-07T08:07:36.122Z,102800.44
2023-02-07T08:10:05.696Z,102803.00
2023-02-07T08:12:33.319Z,102807.34
2023-02-07T08:15:00.556Z,102802.81
2023-02-07T08:17:27.750Z,102795.13
2023-02-07T08:19:55.286Z,102799.00
2023-02-07T08:22:22.495Z,102801.53
2023-02-07T08:24:50.085Z,102793.50
2023-02-07T08:27:17.675Z,102794.12
2023-02-07T08:29:46.125Z,102796.59
2023-02-07T08:32:14.156Z,102803.41
2023-02-07T08:34:41.613Z,102804.19
2023-02-07T08:37:09.502Z,102808.91
2023-02-07T08:39:36.775Z,102808.00
2023-02-07T08:42:08.254Z,102817.41
2023-02-07T08:44:36.564Z,102807.84
2023-02-07T08:47:05.261Z,102804.41
2023-02-07T08:49:32.467Z,102808.97
2023-02-07T08:51:59.667Z,102813.53
2023-02-07T08:54:27.203Z,102817.72
2023-02-07T08:56:54.416Z,102817.94
2023-02-07T08:59:21.668Z,102818.38
2023-02-07T09:01:49.256Z,102809.22
2023-02-07T09:04:16.645Z,102814.09
2023-02-07T09:06:43.816Z,102813.69
2023-02-07T09:09:11.354Z,102807.16
2023-02-07T09:11:38.647Z,102797.16
2023-02-07T09:14:06.174Z,102804.84
2023-02-07T09:16:36.574Z,102809.69
2023-02-07T09:19:14.604Z,102810.72
2023-02-07T09:21:42.303Z,102812.66
2023-02-07T09:24:09.483Z,102812.22
2023-02-07T09:26:38.926Z,102820.81
2023-02-07T09:29:07.112Z,102805.81
2023-02-07T09:31:34.878Z,102804.69
2023-02-07T09:34:03.009Z,102806.41
2023-02-07T09:36:30.963Z,102808.19
2023-02-07T09:38:59.206Z,102800.19
2023-02-07T09:41:56.678Z,102809.84
2023-02-07T09:44:52.512Z,102811.88
2023-02-07T09:47:22.669Z,102807.75
2023-02-07T09:49:56.949Z,102804.97
2023-02-07T09:52:24.051Z,102809.66
2023-02-07T09:54:53.607Z,102806.06
2023-02-07T09:57:37.787Z,102801.06
2023-02-07T10:00:10.254Z,102799.66
2023-02-07T10:02:59.018Z,102799.94
2023-02-07T10:05:39.432Z,102794.94
2023-02-07T10:08:11.236Z,102793.94
2023-02-07T10:10:43.149Z,102782.69
2023-02-07T10:13:26.175Z,102790.94
2023-02-07T10:16:18.361Z,102780.09
2023-02-07T10:18:50.628Z,102778.09
2023-02-07T10:21:22.720Z,102773.03
2023-02-07T10:24:03.897Z,102762.75
2023-02-07T10:26:43.359Z,102774.78
2023-02-07T10:29:26.163Z,102765.63
2023-02-07T10:31:55.066Z,102767.25
2023-02-07T10:34:25.240Z,102771.75
2023-02-07T10:36:53.699Z,102767.56
2023-02-07T10:39:43.275Z,102758.66
2023-02-07T10:42:16.071Z,102758.87
2023-02-07T10:44:43.499Z,102767.47
2023-02-07T10:47:16.662Z,102769.16
2023-02-07T10:49:47.379Z,102752.47
2023-02-07T10:52:35.168Z,102752.06
2023-02-07T10:55:05.524Z,102743.78
2023-02-07T10:57:33.065Z,102735.94
2023-02-07T11:00:10.871Z,102728.84
2023-02-07T11:02:49.818Z,102732.06
2023-02-07T11:05:17.002Z,102738.50
2023-02-07T11:08:23.087Z,102740.56
2023-02-07T11:10:53.241Z,102734.75
2023-02-07T11:13:28.133Z,102728.59
2023-02-07T11:16:04.236Z,102734.78
2023-02-07T11:18:39.319Z,102734.50
2023-02-07T11:21:24.997Z,102735.66
2023-02-07T11:23:55.814Z,102728.66
2023-02-07T11:26:24.098Z,102736.66
2023-02-07T11:29:03.453Z,102728.41
2023-02-07T11:31:33.124Z,102731.16
2023-02-07T11:34:37.821Z,102732.44
2023-02-07T11:37:21.622Z,102732.31
2023-02-07T11:39:50.667Z,102721.19
2023-02-07T11:42:21.459Z,102720.34
2023-02-07T11:44:50.574Z,102714.66
2023-02-07T11:47:23.306Z,102708.37
2023-02-07T11:49:52.797Z,102713.22
2023-02-07T11:52:21.336Z,102707.41
2023-02-07T11:54:53.375Z,102706.59
2023-02-07T11:57:22.165Z,102706.44
2023-02-07T12:00:28.577Z,102708.22
2023-02-07T12:03:27.534Z,102703.94
2023-02-07T12:05:58.576Z,102701.97
2023-02-07T12:08:30.122Z,102703.81
2023-02-07T12:11:11.415Z,102692.72
2023-02-07T12:13:51.867Z,102689.28
2023-02-07T12:16:32.774Z,102687.25
2023-02-07T12:19:05.462Z,102678.56
2023-02-07T12:22:06.873Z,102683.84
2023-02-07T12:24:42.801Z,102684.03
2023-02-07T12:27:18.123Z,102676.19
2023-02-07T12:29:57.856Z,102685.69
2023-02-07T12:32:46.060Z,102687.75
2023-02-07T12:35:25.284Z,102690.84
2023-02-07T12:38:11.779Z,102686.75
2023-02-07T12:41:06.579Z,102680.87
2023-02-07T12:43:37.950Z,102675.69
2023-02-07T12:46:31.897Z,102678.88
2023-02-07T12:49:22.698Z,102676.50
2023-02-07T12:52:11.935Z,102673.13
2023-02-07T12:54:41.828Z,102668.81
2023-02-07T12:57:15.382Z,102669.59
2023-02-07T13:00:04.035Z,102670.50
2023-02-07T13:02:44.564Z,102671.44
2023-02-07T13:05:26.997Z,102665.94
2023-02-07T13:07:57.543Z,102666.91
2023-02-07T13:10:43.458Z,102660.97
2023-02-07T13:14:09.358Z,102658.44
2023-02-07T13:16:44.395Z,102664.00
2023-02-07T13:19:19.703Z,102663.59
2023-02-07T13:21:53.070Z,102661.13
2023-02-07T13:24:22.917Z,102665.84
2023-02-07T13:26:55.273Z,102654.50
2023-02-07T13:29:23.901Z,102670.66
2023-02-07T13:31:57.359Z,102655.34
2023-02-07T13:34:26.824Z,102659.88
2023-02-07T13:36:54.082Z,102654.91
2023-02-07T13:39:27.707Z,102655.00
2023-02-07T13:42:07.713Z,102663.69
2023-02-07T13:44:57.754Z,102657.63
2023-02-07T13:47:34.927Z,102663.66
2023-02-07T13:50:04.673Z,102673.13
2023-02-07T13:52:43.583Z,102653.34
2023-02-07T13:55:19.936Z,102651.62
2023-02-07T13:58:05.801Z,102655.06
2023-02-07T14:00:56.117Z,102654.19
2023-02-07T14:03:35.114Z,102664.53
2023-02-07T14:06:25.807Z,102655.91
2023-02-07T14:08:59.272Z,102656.69
2023-02-07T14:11:34.401Z,102655.03
2023-02-07T14:14:14.394Z,102658.47
2023-02-07T14:17:09.977Z,102657.53
2023-02-07T14:19:40.620Z,102660.97
2023-02-07T14:22:24.634Z,102654.13
2023-02-07T14:24:58.126Z,102661.94
2023-02-07T14:27:50.763Z,102654.19
2023-02-07T14:30:53.649Z,102652.50
2023-02-07T14:33:22.289Z,102656.78
2023-02-07T14:36:14.749Z,102652.47
2023-02-07T14:38:46.118Z,102662.81
2023-02-07T14:41:15.073Z,102670.50
2023-02-07T14:43:44.347Z,102667.91
2023-02-07T14:46:16.436Z,102668.84
2023-02-07T14:48:51.555Z,102667.97
2023-02-07T14:51:20.127Z,102669.69
2023-02-07T14:54:12.462Z,102668.81
2023-02-07T14:57:03.575Z,102682.56
2023-02-07T14:59:34.038Z,102680.84
2023-02-07T15:02:43.653Z,102673.97
2023-02-07T15:05:14.141Z,102677.44
2023-02-07T15:07:43.951Z,102676.50
2023-02-07T15:10:29.594Z,102681.72
2023-02-07T15:12:56.988Z,102685.16
2023-02-07T15:15:30.198Z,102685.03
2023-02-07T15:17:59.626Z,102690.13
2023-02-07T15:20:33.110Z,102694.91
2023-02-07T15:23:02.458Z,102697.00
2023-02-07T15:25:31.751Z,102689.19
2023-02-07T15:28:26.754Z,102691.53
2023-02-07T15:30:55.012Z,102690.75
2023-02-07T15:33:27.039Z,102694.06
2023-02-07T15:35:54.551Z,102687.81
2023-02-07T15:38:26.784Z,102696.41
2023-02-07T15:40:55.231Z,102694.53
2023-02-07T15:43:32.365Z,102697.75
2023-02-07T15:46:02.743Z,102699.16
2023-02-07T15:48:30.807Z,102698.19
2023-02-07T15:51:00.752Z,102696.44
2023-02-07T15:53:29.734Z,102706.19
2023-02-07T15:55:57.716Z,102697.09
2023-02-07T15:58:28.956Z,102708.91
2023-02-07T16:01:01.786Z,102713.19
2023-02-07T16:03:42.212Z,102717.06
2023-02-07T16:06:19.245Z,102717.44
2023-02-07T16:08:51.640Z,102724.94
2023-02-07T16:11:27.546Z,102719.56
2023-02-07T16:14:21.985Z,102724.94
2023-02-07T16:16:57.125Z,102725.22
2023-02-07T16:19:28.095Z,102730.31
2023-02-07T16:22:07.029Z,102734.84
2023-02-07T16:24:36.711Z,102719.72
2023-02-07T16:27:05.795Z,102726.13
2023-02-07T16:29:34.339Z,102732.16
2023-02-07T16:32:01.912Z,102729.31
2023-02-07T16:34:29.003Z,102731.13
2023-02-07T16:36:56.325Z,102729.06
2023-02-07T16:39:23.759Z,102734.25
2023-02-07T16:41:54.004Z,102733.19
2023-02-07T16:44:25.657Z,102734.69
2023-02-07T16:46:53.108Z,102731.28
2023-02-07T16:49:21.976Z,102741.94
2023-02-07T16:51:49.541Z,102741.84
2023-02-07T16:54:17.110Z,102739.31
2023-02-07T16:56:45.015Z,102734.78
2023-02-07T16:59:14.435Z,102743.03
2023-02-07T17:01:41.909Z,102732.72
2023-02-07T17:04:09.818Z,102734.34
2023-02-07T17:06:37.021Z,102745.37
2023-02-07T17:09:06.373Z,102745.03
2023-02-07T17:11:33.567Z,102732.25
2023-02-07T17:14:00.777Z,102738.84
2023-02-07T17:16:28.373Z,102737.16
2023-02-07T17:18:55.591Z,102735.94
2023-02-07T17:21:23.808Z,102730.84
2023-02-07T17:23:51.652Z,102734.28
2023-02-07T17:26:30.021Z,102737.97
2023-02-07T17:28:57.749Z,102740.12
2023-02-07T17:31:25.242Z,102739.94
2023-02-07T17:33:52.630Z,102734.84
2023-02-07T17:36:20.186Z,102736.31
2023-02-07T17:38:47.396Z,102744.63
2023-02-07T17:41:15.655Z,102741.34
2023-02-07T17:43:43.110Z,102744.56
2023-02-07T17:46:19.217Z,102747.38
2023-02-07T17:48:49.074Z,102742.19
2023-02-07T17:51:17.308Z,102740.69
2023-02-07T17:53:44.654Z,102742.56
2023-02-07T17:56:24.189Z,102743.12
2023-02-07T17:58:52.206Z,102738.91
2023-02-07T18:01:19.691Z,102748.09
2023-02-07T18:03:48.686Z,102757.69
2023-02-07T18:06:17.763Z,102755.75
2023-02-07T18:08:45.603Z,102748.94
2023-02-07T18:11:14.330Z,102752.47
2023-02-07T18:13:43.276Z,102749.75
2023-02-07T18:16:18.718Z,102760.03
2023-02-07T18:18:46.301Z,102760.59
2023-02-07T18:21:13.825Z,102776.13
2023-02-07T18:23:43.022Z,102772.53
2023-02-07T18:26:16.846Z,102773.44
2023-02-07T18:28:44.093Z,102768.47
2023-02-07T18:31:17.580Z,102774.38
2023-02-07T18:33:44.935Z,102770.06
2023-02-07T18:36:12.604Z,102764.09
2023-02-07T18:38:39.904Z,102764.03
2023-02-07T18:41:11.608Z,102756.25
2023-02-07T18:43:40.503Z,102763.06
2023-02-07T18:46:12.557Z,102764.34
2023-02-07T18:48:40.066Z,102771.97
2023-02-07T18:51:11.408Z,102770.03
2023-02-07T18:53:38.836Z,102783.00
2023-02-07T18:56:18.697Z,102776.78
2023-02-07T18:58:49.237Z,102777.69
2023-02-07T19:01:20.128Z,102777.25
2023-02-07T19:03:51.428Z,102774.09
2023-02-07T19:06:18.966Z,102788.09
2023-02-07T19:08:46.178Z,102779.69
2023-02-07T19:11:13.449Z,102776.00
2023-02-07T19:13:40.965Z,102782.16
2023-02-07T19:16:12.686Z,102775.03
2023-02-07T19:18:40.209Z,102780.59
2023-02-07T19:21:10.618Z,102778.87
2023-02-07T19:23:38.536Z,102784.91
2023-02-07T19:26:06.499Z,102788.19
2023-02-07T19:28:35.056Z,102776.19
2023-02-07T19:31:03.868Z,102785.84
2023-02-07T19:33:31.084Z,102776.13
2023-02-07T19:36:07.422Z,102774.44
2023-02-07T19:38:34.656Z,102772.59
2023-02-07T19:41:03.118Z,102776.81
2023-02-07T19:43:30.868Z,102774.34
2023-02-07T19:45:58.139Z,102768.00
2023-02-07T19:48:26.176Z,102778.41
2023-02-07T19:51:05.564Z,102772.56
2023-02-07T19:53:33.401Z,102783.31
2023-02-07T19:56:02.451Z,102778.03
2023-02-07T19:58:31.103Z,102783.25
2023-02-07T20:00:59.363Z,102783.63
2023-02-07T20:03:27.680Z,102776.84
2023-02-07T20:05:54.928Z,102776.63
2023-02-07T20:08:22.151Z,102773.09
2023-02-07T20:10:49.634Z,102776.31
2023-02-07T20:13:16.908Z,102775.16
2023-02-07T20:15:45.868Z,102784.34
2023-02-07T20:18:15.618Z,102780.34
2023-02-07T20:20:43.969Z,102784.97
2023-02-07T20:23:11.756Z,102788.50
2023-02-07T20:25:40.084Z,102790.38
2023-02-07T20:28:07.951Z,102798.69
2023-02-07T20:30:35.803Z,102796.53
2023-02-07T20:33:03.337Z,102800.66
2023-02-07T20:35:30.519Z,102805.87
2023-02-07T20:37:57.686Z,102798.09
2023-02-07T20:40:25.072Z,102797.25
2023-02-07T20:42:52.268Z,102802.72
2023-02-07T20:45:19.420Z,102803.91
2023-02-07T20:47:46.870Z,102805.44
2023-02-07T20:50:14.276Z,102807.34
2023-02-07T20:52:41.573Z,102814.06
2023-02-07T20:55:09.407Z,102814.09
2023-02-07T20:57:36.568Z,102815.34
2023-02-07T21:00:04.950Z,102823.72
2023-02-07T21:02:32.536Z,102815.44
2023-02-07T21:04:59.726Z,102819.44
2023-02-07T21:07:27.282Z,102821.62
2023-02-07T21:09:54.924Z,102824.34
2023-02-07T21:12:22.201Z,102823.81
2023-02-07T21:14:49.282Z,102828.62
2023-02-07T21:17:16.792Z,102828.88
2023-02-07T21:19:43.873Z,102830.34
2023-02-07T21:22:11.010Z,102827.97
2023-02-07T21:24:38.455Z,102828.19
2023-02-07T21:27:05.830Z,102830.69
2023-02-07T21:29:34.159Z,102838.50
2023-02-07T21:32:01.727Z,102837.78
2023-02-07T21:34:28.897Z,102839.84
2023-02-07T21:36:55.987Z,102835.88
2023-02-07T21:39:24.390Z,102834.00
2023-02-07T21:41:52.033Z,102840.31
2023-02-07T21:44:21.169Z,102845.88
2023-02-07T21:46:49.899Z,102846.38
2023-02-07T21:49:19.452Z,102845.53
2023-02-07T21:51:48.872Z,102839.87
2023-02-07T21:54:16.733Z,102843.69
2023-02-07T21:56:44.585Z,102847.84
2023-02-07T21:59:14.709Z,102843.81
2023-02-07T22:01:42.907Z,102834.63
2023-02-07T22:04:10.818Z,102843.37
2023-02-07T22:06:41.932Z,102842.75
2023-02-07T22:09:11.476Z,102843.72
2023-02-07T22:11:38.998Z,102837.50
2023-02-07T22:14:06.309Z,102837.88
2023-02-07T22:16:34.502Z,102835.88
2023-02-07T22:19:04.407Z,102833.81
2023-02-07T22:21:36.053Z,102831.72
2023-02-07T22:24:05.063Z,102834.03
2023-02-07T22:26:33.295Z,102837.44
2023-02-07T22:29:00.386Z,102842.41
2023-02-07T22:31:29.676Z,102836.53
2023-02-07T22:34:00.457Z,102849.34
2023-02-07T22:36:30.420Z,102844.78
2023-02-07T22:38:59.925Z,102843.81
2023-02-07T22:41:28.934Z,102833.72
2023-02-07T22:43:56.181Z,102846.03
2023-02-07T22:46:24.604Z,102837.59
2023-02-07T22:48:53.370Z,102839.34
2023-02-07T22:51:21.755Z,102833.66
2023-02-07T22:53:50.318Z,102836.19
2023-02-07T22:56:17.713Z,102831.50
2023-02-07T22:58:45.106Z,102841.53
2023-02-07T23:01:34.343Z,102839.13
2023-02-07T23:04:03.555Z,102835.94
2023-02-07T23:06:32.575Z,102829.28
2023-02-07T23:09:00.518Z,102829.13
2023-02-07T23:11:27.940Z,102831.97
2023-02-07T23:13:55.337Z,102829.13
2023-02-07T23:16:27.041Z,102824.44
2023-02-07T23:18:58.479Z,102824.38
2023-02-07T23:21:26.681Z,102828.16
2023-02-07T23:23:54.417Z,102832.66
2023-02-07T23:26:24.021Z,102832.25
2023-02-07T23:28:51.749Z,102824.97
2023-02-07T23:31:20.534Z,102820.63
2023-02-07T23:33:48.417Z,102827.84
2023-02-07T23:36:17.683Z,102830.84
2023-02-07T23:38:46.015Z,102830.84
2023-02-07T23:41:13.836Z,102830.50
2023-02-07T23:43:41.515Z,102827.72
2023-02-07T23:46:09.320Z,102832.75
2023-02-07T23:48:38.606Z,102823.31
2023-02-07T23:51:06.813Z,102824.44
2023-02-07T23:53:34.335Z,102824.75
2023-02-07T23:56:01.895Z,102827.13
2023-02-07T23:58:28.996Z,102823.22
